Etusivu
METAR-TAF:

METAR-TAF

Lentoasemat :

Caldwell Industrial Airport

Caldwell, Idaho, Yhdysvallat

Leveyspiiri: 43-38N, Pituuspiiri: 116-38W, korkeus merenpinnasta: 740 m

Tämänhetkinen sää

Tämä raportti tehtiin 17 minuuttia sitten, kello 19.56 UTC
Tuuli 10 kn lännestä
Lämpötila 27°C
Kosteus 21%
Ilmanpaine 1018 hPa
Näkyvyys: 16.1 km
selkeää

METAR: KEUL 141956Z AUTO 28010KT 10SM CLR 27/03 A3007 RMK AO2 SLP165 T02670033

Aika: 14:13 (20:13 UTC)

Sääennuste

Tämä raportti tehtiin 2 tuntia ja 53 minuuttia sitten, kello 17.20 UTC
Ennuste voimassa 14. päivästä klo 18 UTC - 15. päivään klo 18 UTC
Tuuli 8 kn lännestä
Näkyvyys: 10 km
selkeää
From 14. päivästä klo 2000 UTC
Tuuli 10 kn pohjoisen/luoteesta
Näkyvyys: 10 km
selkeää
From 15. päivästä klo 0400 UTC
Tuuli 4 kn lännestä/luoteesta
Näkyvyys: 10 km
selkeää

TAF: KEUL 141720Z 1418/1518 28008KT P6SM SKC FM142000 33010KT P6SM SKC FM150400 30004KT P6SM SKC

Säähavainnot ja -ennusteet yli 4000 lentoasemalta (METAR- ja TAF-raportit).

Käytössä olevat sääasemat on merkitty karttaan keltaisilla ja punaisilla pisteillä.

Aseta hiiri pisteen päälle nähdäksesi sääaseman nimen.

Klikkaa sitten nähdäksesi säähavainnot ja -ennusteet.

Kartan vaihtaminen: klikkaa mustalla rastilla varustettuja vihreitä pisteitä, niin voit zoomata sisään; viivalla varustettua vihreää pistettä, niin voit zoomata ulos tai vihreitä nuolia, niin pääset viereisille kartoille.


METAR-TAF: